Saint Paul, Virginia
Current Conditions -  °F | °C
As of 8:35 PM on Thursday 27 Nov 2014 (Local Time) from KLNP Reporting Station
Light Snow Light Snow  
Wind Chill: 17°   Ceiling: 1400
Heat Index: 27°   Visibility: 10mi
Dew Point: 23°   Wind: 9mph
Humidity: 86%   Direction: 280°W
Pressure: 30.28"   Gusts: NA
Location:  36.91°N, 82.31°W
Report Text: KLNP 280135Z AUTO 28008KT 10SM -SN OVC014 M03/M05 A3028 RMK AO2
Loading
Personal Weather Stations






























Interactive Weather Map New forecast layout! Learn more

10-Day Weather Forecast

Advertisements
Track Severe Weather on mobile